Bookmark and Share
Track history (hours):
 

George Allen

More information available from US FCC via Universal Licensing System and Coast Guard Vessel Documentation Center.

Last reported at 2014-Apr-17 18:26 UTC. Time now 2014-Apr-19 02:13 UTC.
Position N 29°53' W 091°13'.

Length 25 m.

Type: Towing. MMSI: 367508440.

NotesDate/timePositionNaut miles runAvg speedWind from/ knotsBaromVisibWave heightAir tempDewpointWater temp
2014-Apr-17 18:26N 29°53' W 091°13'4 4.5
2014-Apr-17 17:33N 29°49' W 091°10'4 3.8
2014-Apr-17 16:33N 29°46' W 091°11'4 4.1
2014-Apr-17 15:33N 29°42' W 091°13'3 3.5
2014-Apr-17 14:33N 29°39' W 091°15'4 3.9
2014-Apr-17 13:33N 29°38' W 091°20'4 4.3
2014-Apr-17 12:33N 29°39' W 091°25'3 3.5
2014-Apr-17 11:33N 29°41' W 091°28'2 1.7
2014-Apr-17 10:33N 29°42' W 091°30'3 2.9
2014-Apr-17 09:33N 29°43' W 091°33'  
2014-Apr-12 14:27N 29°45' W 095°06'0 0.0
2014-Apr-12 13:15N 29°45' W 095°06'0 0.0
2014-Apr-12 12:34N 29°45' W 095°06'1 0.3
2014-Apr-12 09:33N 29°46' W 095°05'1 0.7
2014-Apr-12 08:33N 29°46' W 095°05'0 0.0
2014-Apr-12 07:29N 29°46' W 095°05'0 0.0
2014-Apr-12 06:13N 29°46' W 095°05'2 2.1
2014-Apr-12 05:24N 29°45' W 095°06'2 2.8
2014-Apr-12 04:33N 29°47' W 095°04'1 0.5
2014-Apr-12 03:24N 29°47' W 095°05'0 0.0
2014-Apr-12 02:31N 29°47' W 095°05'0 0.0
2014-Apr-12 01:27N 29°47' W 095°05'0 0.1
2014-Apr-12 00:32N 29°47' W 095°05'0 0.0
2014-Apr-11 23:31N 29°47' W 095°05'0 0.0
2014-Apr-11 22:33N 29°47' W 095°05'0 0.0
2014-Apr-11 21:33N 29°47' W 095°05'0 0.1
2014-Apr-11 20:23N 29°47' W 095°05'0 0.0
2014-Apr-11 19:29N 29°47' W 095°05'0 0.0
2014-Apr-11 18:33N 29°47' W 095°05'0 0.0
2014-Apr-11 17:22N 29°47' W 095°05'0 0.0
2014-Apr-11 16:33N 29°47' W 095°05'1 0.9
2014-Apr-11 15:31N 29°46' W 095°05'0 0.3
2014-Apr-11 14:33N 29°46' W 095°05'2 1.9
2014-Apr-11 13:33N 29°45' W 095°06'0 0.0
2014-Apr-11 12:33N 29°45' W 095°06'3 0.5
2014-Apr-11 06:33N 29°47' W 095°05'0 0.0
2014-Apr-11 05:31N 29°47' W 095°05'0 0.0
2014-Apr-11 02:22N 29°47' W 095°05'0 0.0
2014-Apr-11 00:28N 29°47' W 095°05'0 0.0
2014-Apr-10 21:05N 29°47' W 095°05'1 0.9
2014-Apr-10 20:29N 29°47' W 095°04'1 1.6
2014-Apr-10 19:33N 29°46' W 095°05'6 5.7
2014-Apr-10 18:33N 29°42' W 094°60'7 6.9
2014-Apr-10 17:33N 29°36' W 094°56'7 7.0
2014-Apr-10 16:33N 29°30' W 094°52'  

Dump ship's entire track history

sailing weather and tide predictions

George Allen — WDF9749 — position and weather